Time;durP1;ratioP1;P1;durP2;ratioP2;P2;SDS_P1;SDS_P2;PMS_P1;PMS_P2;Temp;Humidity;BMP_temperature;BMP_pressure;BME280_temperature;BME280_humidity;BME280_pressure;Samples;Min_cycle;Max_cycle;Signal;HPM_P1;HPM_P2
2021/06/05 00:01:54;;;;;;;238.93;229.67;;;16.20;99.90;;;;;;6246174;23;20427;-81
2021/06/05 00:04:23;;;;;;;256.90;247.10;;;16.10;99.90;;;;;;6247490;23;20459;-81
2021/06/05 00:06:50;;;;;;;264.33;254.33;;;16.10;99.90;;;;;;6257025;23;20416;-80
2021/06/05 00:09:19;;;;;;;268.17;258.13;;;16.20;99.90;;;;;;6247538;23;20399;-81
2021/06/05 00:11:47;;;;;;;270.17;260.07;;;16.20;99.90;;;;;;6247323;23;20403;-81
2021/06/05 00:14:13;;;;;;;274.43;264.23;;;16.20;99.90;;;;;;6257361;23;20404;-81
2021/06/05 00:16:43;;;;;;;254.40;244.70;;;16.20;99.90;;;;;;6247378;23;20399;-81
2021/06/05 00:19:11;;;;;;;280.73;270.43;;;16.20;99.90;;;;;;6256350;23;20409;-81
2021/06/05 00:21:38;;;;;;;280.70;270.30;;;16.20;99.90;;;;;;6257305;23;20460;-81
2021/06/05 00:24:07;;;;;;;288.93;278.37;;;16.20;99.90;;;;;;6247030;23;20518;-81
2021/06/05 00:26:33;;;;;;;286.57;275.97;;;16.20;99.90;;;;;;6247234;23;20488;-81
2021/06/05 00:29:01;;;;;;;268.00;257.97;;;16.20;99.90;;;;;;6247470;23;20537;-81
2021/06/05 00:31:28;;;;;;;294.70;283.90;;;16.20;99.90;;;;;;6247351;23;20487;-81
2021/06/05 00:33:55;;;;;;;257.67;247.80;;;16.20;99.90;;;;;;6245418;23;20399;-81
2021/06/05 00:36:22;;;;;;;286.50;275.90;;;16.20;99.90;;;;;;6246927;23;20435;-81
2021/06/05 00:38:48;;;;;;;286.93;276.33;;;16.30;99.90;;;;;;6246970;23;20436;-81
2021/06/05 00:41:17;;;;;;;292.10;281.30;;;16.40;99.90;;;;;;6246827;23;20914;-81
2021/06/05 00:43:46;;;;;;;278.70;268.30;;;16.50;99.90;;;;;;6247172;23;20435;-81
2021/06/05 00:46:16;;;;;;;268.13;258.03;;;16.50;99.90;;;;;;6246882;23;20391;-81
2021/06/05 00:48:42;;;;;;;276.97;266.57;;;16.50;99.90;;;;;;6245643;23;20427;-81
2021/06/05 00:51:10;;;;;;;299.33;288.33;;;16.50;99.90;;;;;;6246221;23;20410;-81
2021/06/05 00:53:36;;;;;;;281.23;270.70;;;16.50;99.90;;;;;;6247222;23;20490;-81
2021/06/05 00:56:07;;;;;;;325.27;313.57;;;16.60;99.90;;;;;;6246533;23;20883;-81
2021/06/05 00:58:33;;;;;;;316.43;304.93;;;16.60;99.90;;;;;;6246761;23;20435;-81
2021/06/05 01:01:05;;;;;;;307.90;296.70;;;16.60;99.90;;;;;;6246623;23;20428;-81
2021/06/05 01:03:34;;;;;;;290.83;280.13;;;16.60;99.90;;;;;;6245076;23;20542;-81
2021/06/05 01:06:07;;;;;;;307.67;296.33;;;16.50;99.90;;;;;;6246525;23;20431;-81
2021/06/05 01:08:40;;;;;;;300.83;289.83;;;16.40;99.90;;;;;;6256958;23;20435;-81
2021/06/05 01:11:15;;;;;;;292.03;281.23;;;16.40;99.90;;;;;;6257004;23;20411;-81
2021/06/05 01:13:44;;;;;;;297.93;287.03;;;16.40;99.90;;;;;;6246840;23;20481;-81
2021/06/05 01:16:16;;;;;;;295.20;284.30;;;16.30;99.90;;;;;;6246853;23;20407;-81
2021/06/05 01:18:49;;;;;;;281.00;270.50;;;16.30;99.90;;;;;;6245472;23;20399;-81
2021/06/05 01:21:41;;;;;;;274.33;263.93;;;16.20;99.90;;;;;;6246429;23;20915;-81
2021/06/05 01:24:20;;;;;;;268.87;258.67;;;16.20;99.90;;;;;;6246320;23;20471;-81
2021/06/05 01:26:55;;;;;;;238.13;228.83;;;16.00;99.90;;;;;;6256626;23;20980;-81
2021/06/05 01:29:26;;;;;;;270.00;259.90;;;16.00;99.90;;;;;;6246685;23;20494;-81
2021/06/05 01:31:57;;;;;;;272.10;261.93;;;15.90;99.90;;;;;;6255160;23;20435;-81
2021/06/05 01:34:25;;;;;;;271.63;261.53;;;15.90;99.90;;;;;;6246558;23;20486;-82
2021/06/05 01:36:54;;;;;;;271.07;261.07;;;15.90;99.90;;;;;;6246240;23;20467;-81
2021/06/05 01:39:25;;;;;;;269.00;259.00;;;15.80;99.90;;;;;;6246599;23;20406;-81
2021/06/05 01:41:55;;;;;;;267.93;257.87;;;15.80;99.90;;;;;;6256542;23;20482;-81
2021/06/05 01:44:23;;;;;;;264.93;255.03;;;15.70;99.90;;;;;;6246423;23;20485;-81
2021/06/05 01:46:50;;;;;;;270.50;260.43;;;15.70;99.90;;;;;;6245232;23;20400;-81
2021/06/05 01:49:18;;;;;;;264.03;254.23;;;15.70;99.90;;;;;;6246367;23;20920;-81
2021/06/05 01:51:48;;;;;;;278.43;268.23;;;15.70;99.90;;;;;;6246295;23;20403;-81
2021/06/05 01:54:19;;;;;;;277.77;267.57;;;15.70;99.90;;;;;;6256214;23;20407;-81
2021/06/05 01:56:51;;;;;;;264.13;254.33;;;15.70;99.90;;;;;;6246538;23;20482;-80
2021/06/05 01:59:19;;;;;;;288.53;278.07;;;15.80;99.90;;;;;;6246408;23;20403;-80
2021/06/05 02:01:46;;;;;;;298.37;287.67;;;16.00;99.90;;;;;;6245486;23;20427;-81
2021/06/05 02:04:15;;;;;;;278.73;268.50;;;16.10;99.90;;;;;;6245577;23;20466;-81
2021/06/05 02:06:44;;;;;;;287.87;277.33;;;16.20;99.90;;;;;;6256231;23;20494;-81
2021/06/05 02:09:12;;;;;;;316.40;305.10;;;16.20;99.90;;;;;;6245947;23;20482;-81
2021/06/05 02:11:43;;;;;;;292.20;281.50;;;16.30;99.90;;;;;;6246469;23;20785;-81
2021/06/05 02:14:14;;;;;;;344.00;331.83;;;16.40;99.90;;;;;;6256032;23;20410;-82
2021/06/05 02:16:51;;;;;;;346.97;334.67;;;16.50;99.90;;;;;;6245920;23;20403;-81
2021/06/05 02:19:22;;;;;;;349.03;336.73;;;16.50;99.90;;;;;;6246228;23;20498;-80
2021/06/05 02:21:50;;;;;;;347.10;334.80;;;16.50;99.90;;;;;;6246320;23;20427;-81
2021/06/05 02:24:20;;;;;;;332.50;320.57;;;16.50;99.90;;;;;;6246031;23;20509;-81
2021/06/05 02:26:48;;;;;;;364.20;351.40;;;16.70;99.90;;;;;;6246015;23;20406;-81
2021/06/05 02:29:18;;;;;;;339.87;327.87;;;16.70;99.90;;;;;;6245793;23;20431;-81
2021/06/05 02:31:47;;;;;;;388.93;375.60;;;16.60;99.90;;;;;;6245886;23;20725;-80
2021/06/05 02:34:15;;;;;;;381.23;368.13;;;16.70;99.90;;;;;;6245626;23;20473;-80
2021/06/05 02:36:45;;;;;;;372.33;359.63;;;16.70;99.90;;;;;;6245801;23;20458;-82
2021/06/05 02:39:14;;;;;;;414.53;400.60;;;16.80;99.90;;;;;;6245340;23;20395;-81
2021/06/05 02:41:43;;;;;;;434.07;419.67;;;16.80;99.90;;;;;;6246196;23;20395;-82
2021/06/05 02:44:13;;;;;;;442.80;428.17;;;16.80;99.90;;;;;;6245912;23;20564;-81
2021/06/05 02:46:40;;;;;;;466.60;451.33;;;16.80;99.90;;;;;;6246031;23;20491;-81
2021/06/05 02:49:23;;;;;;;487.30;471.50;;;16.80;99.90;;;;;;6244427;23;20407;-81
2021/06/05 02:51:54;;;;;;;496.70;480.80;;;16.90;99.90;;;;;;6255602;23;20472;-81
2021/06/05 02:54:22;;;;;;;505.30;489.10;;;16.90;99.90;;;;;;6255901;23;20722;-81
2021/06/05 02:56:48;;;;;;;490.40;474.67;;;16.90;99.90;;;;;;6245998;23;20442;-82
2021/06/05 02:59:15;;;;;;;496.33;480.60;;;16.90;99.90;;;;;;6255718;23;20411;-81
2021/06/05 03:01:42;;;;;;;503.73;487.73;;;17.00;99.90;;;;;;6245865;23;20406;-81
2021/06/05 03:04:09;;;;;;;585.20;566.90;;;17.00;99.90;;;;;;6254360;23;20455;-82
2021/06/05 03:06:36;;;;;;;546.50;529.33;;;16.90;99.90;;;;;;6255611;23;20434;-81
2021/06/05 03:09:04;;;;;;;600.30;581.50;;;17.00;99.90;;;;;;6245924;23;20494;-82
2021/06/05 03:11:31;;;;;;;584.10;565.80;;;16.80;99.90;;;;;;6245596;23;20879;-81
2021/06/05 03:13:57;;;;;;;587.87;569.60;;;16.90;99.90;;;;;;6245674;23;20439;-80
2021/06/05 03:16:24;;;;;;;563.90;546.30;;;16.80;99.90;;;;;;6247703;23;20399;-81
2021/06/05 03:18:52;;;;;;;628.13;608.67;;;16.90;99.90;;;;;;6245935;23;20545;-81
2021/06/05 03:21:21;;;;;;;611.97;592.93;;;16.80;99.90;;;;;;6247448;23;20760;-82
2021/06/05 03:23:49;;;;;;;609.70;590.90;;;16.90;99.90;;;;;;6247118;23;20431;-82
2021/06/05 03:26:17;;;;;;;624.13;604.67;;;16.80;99.90;;;;;;6257514;23;20407;-81
2021/06/05 03:28:43;;;;;;;641.37;621.33;;;16.80;99.90;;;;;;6258216;23;20433;-81
2021/06/05 03:31:11;;;;;;;617.53;598.37;;;16.80;99.90;;;;;;6247859;23;20477;-81
2021/06/05 03:33:40;;;;;;;628.83;609.20;;;16.90;99.90;;;;;;6256316;23;20425;-81
2021/06/05 03:36:07;;;;;;;637.57;617.77;;;16.90;99.90;;;;;;6257925;23;20933;-81
2021/06/05 03:38:36;;;;;;;631.57;611.83;;;16.90;99.90;;;;;;6247812;23;20395;-81
2021/06/05 03:41:02;;;;;;;633.43;613.57;;;16.80;99.90;;;;;;6247550;23;20399;-81
2021/06/05 03:43:29;;;;;;;640.50;620.30;;;16.90;99.90;;;;;;6247752;23;20766;-82
2021/06/05 03:45:55;;;;;;;668.27;646.80;;;17.00;99.90;;;;;;6257346;23;20414;-81
2021/06/05 03:48:22;;;;;;;655.40;634.60;;;17.00;99.90;;;;;;6256041;23;20408;-83
2021/06/05 03:50:52;;;;;;;689.00;666.23;;;17.00;99.90;;;;;;6256908;23;20417;-80
2021/06/05 03:53:21;;;;;;;688.67;665.37;;;17.00;99.90;;;;;;6247126;23;20406;-83
2021/06/05 03:55:49;;;;;;;714.87;690.37;;;17.00;99.90;;;;;;6257197;23;20409;-79
2021/06/05 03:58:16;;;;;;;726.63;702.10;;;17.10;99.90;;;;;;6247158;23;20453;-79
2021/06/05 04:00:45;;;;;;;714.13;689.70;;;17.20;99.90;;;;;;6247345;23;20405;-78
2021/06/05 04:03:12;;;;;;;729.87;704.67;;;17.00;99.90;;;;;;6245770;23;20435;-78
2021/06/05 04:05:40;;;;;;;733.83;708.20;;;17.00;99.90;;;;;;6247593;23;20435;-78
2021/06/05 04:08:07;;;;;;;753.83;727.33;;;17.10;99.90;;;;;;6247730;23;20403;-79
2021/06/05 04:10:34;;;;;;;780.60;752.90;;;17.10;99.90;;;;;;6247463;23;20425;-78
2021/06/05 04:13:02;;;;;;;778.63;751.10;;;17.10;99.90;;;;;;6256935;23;20438;-78
2021/06/05 04:15:30;;;;;;;777.53;749.97;;;17.10;99.90;;;;;;6257585;23;20870;-78
2021/06/05 04:18:03;;;;;;;749.90;723.50;;;17.20;99.90;;;;;;6245931;23;20403;-78
2021/06/05 04:20:30;;;;;;;795.10;766.97;;;17.20;99.90;;;;;;6247326;23;20836;-78
2021/06/05 04:22:56;;;;;;;775.23;748.10;;;17.20;99.90;;;;;;6247354;23;20794;-80
2021/06/05 04:25:23;;;;;;;763.77;737.20;;;17.20;99.90;;;;;;6247182;23;20458;-79
2021/06/05 04:27:50;;;;;;;751.23;725.17;;;17.20;99.90;;;;;;6247180;23;20726;-79
2021/06/05 04:30:20;;;;;;;771.60;744.43;;;17.20;99.90;;;;;;6246942;23;20486;-79
2021/06/05 04:32:46;;;;;;;754.60;727.80;;;17.20;99.90;;;;;;6244901;23;20478;-80
2021/06/05 04:35:12;;;;;;;805.80;777.20;;;17.40;99.90;;;;;;6246851;23;20395;-79
2021/06/05 04:37:39;;;;;;;836.63;807.83;;;17.20;99.90;;;;;;6246891;23;20518;-78
2021/06/05 04:40:07;;;;;;;863.97;834.70;;;17.30;99.90;;;;;;6247259;23;20438;-79
2021/06/05 04:42:33;;;;;;;897.00;866.70;;;17.50;99.90;;;;;;6246829;23;20928;-81
2021/06/05 04:45:00;;;;;;;958.83;925.90;;;17.50;99.90;;;;;;6256753;23;20443;-79
2021/06/05 04:47:28;;;;;;;1057.43;999.90;;;17.60;99.90;;;;;;6245044;23;20399;-78
2021/06/05 04:49:54;;;;;;;1130.17;999.90;;;17.80;99.90;;;;;;6247156;23;20490;-84
2021/06/05 04:52:20;;;;;;;1204.63;999.90;;;17.90;99.90;;;;;;6247167;23;20725;-82
2021/06/05 04:54:47;;;;;;;1270.17;999.90;;;18.00;99.90;;;;;;6256931;23;20902;-85
2021/06/05 04:57:13;;;;;;;1290.27;999.90;;;18.00;99.90;;;;;;6247020;23;20404;-84
2021/06/05 04:59:39;;;;;;;1292.23;999.90;;;18.00;99.90;;;;;;6246651;23;20431;-81
2021/06/05 05:02:06;;;;;;;1279.50;999.90;;;17.90;99.90;;;;;;6245444;23;20431;-84
2021/06/05 05:04:33;;;;;;;1275.33;999.90;;;17.90;99.90;;;;;;6246818;23;20469;-81
2021/06/05 05:07:00;;;;;;;1228.80;999.90;;;17.90;99.90;;;;;;6246757;23;20488;-82
2021/06/05 05:09:26;;;;;;;1197.67;999.90;;;17.70;99.90;;;;;;6246812;23;20413;-83
2021/06/05 05:11:52;;;;;;;1188.63;999.90;;;17.70;99.90;;;;;;6256604;23;20419;-81
2021/06/05 05:14:19;;;;;;;1172.10;999.90;;;17.60;99.90;;;;;;6246869;23;20403;-83
2021/06/05 05:16:46;;;;;;;1118.50;999.90;;;17.60;99.90;;;;;;6246682;23;20787;-82
2021/06/05 05:19:12;;;;;;;1113.20;999.90;;;17.50;99.90;;;;;;6245852;23;20404;-84
2021/06/05 05:21:40;;;;;;;1169.63;999.90;;;17.40;99.90;;;;;;6247022;23;20413;-79
2021/06/05 05:24:07;;;;;;;1151.13;999.90;;;17.40;99.90;;;;;;6246418;23;20473;-84
2021/06/05 05:26:34;;;;;;;1183.73;999.90;;;17.50;99.90;;;;;;6256873;23;20431;-83
2021/06/05 05:29:00;;;;;;;1203.37;999.90;;;17.60;99.90;;;;;;6246773;23;20404;-80
2021/06/05 05:31:29;;;;;;;1248.67;999.90;;;17.70;99.90;;;;;;6246152;23;20864;-79
2021/06/05 05:33:56;;;;;;;1313.10;999.90;;;17.80;99.90;;;;;;6254993;23;20734;-79
2021/06/05 05:36:26;;;;;;;1337.50;999.90;;;18.20;99.90;;;;;;6246409;23;20435;-78
2021/06/05 05:38:54;;;;;;;1443.57;999.90;;;18.70;99.90;;;;;;6246235;23;20399;-78
2021/06/05 05:41:23;;;;;;;1567.73;999.90;;;18.90;99.90;;;;;;6246599;23;20396;-78
2021/06/05 05:43:49;;;;;;;1584.37;999.90;;;19.30;99.90;;;;;;6246097;23;20514;-78
2021/06/05 05:46:16;;;;;;;1619.03;999.90;;;19.40;99.90;;;;;;6256015;23;20408;-78
2021/06/05 05:48:43;;;;;;;1582.00;999.90;;;19.30;99.90;;;;;;6254780;23;20413;-79
2021/06/05 05:51:12;;;;;;;1511.40;999.90;;;19.30;99.90;;;;;;6246267;23;20403;-78
2021/06/05 05:53:39;;;;;;;1428.80;999.90;;;19.30;99.90;;;;;;6246389;23;20498;-78
2021/06/05 05:56:09;;;;;;;1376.90;999.90;;;19.10;99.90;;;;;;6246002;23;20399;-79
2021/06/05 05:58:39;;;;;;;1367.30;999.90;;;19.20;99.90;;;;;;6246055;23;20427;-79
2021/06/05 06:01:06;;;;;;;1373.70;999.90;;;19.50;99.90;;;;;;6245674;23;20493;-79
2021/06/05 06:03:33;;;;;;;1368.90;999.90;;;19.60;99.90;;;;;;6244392;23;20424;-79
2021/06/05 06:05:59;;;;;;;1392.40;999.90;;;19.30;99.90;;;;;;6245609;23;20446;-80
2021/06/05 06:08:26;;;;;;;1384.83;999.90;;;19.30;99.90;;;;;;6245840;23;20399;-80
2021/06/05 06:10:54;;;;;;;1344.67;999.90;;;19.40;99.90;;;;;;6246312;23;20431;-82
2021/06/05 06:13:22;;;;;;;1258.87;999.90;;;19.20;99.90;;;;;;6256109;23;20414;-82
2021/06/05 06:15:49;;;;;;;1176.60;999.90;;;19.20;99.90;;;;;;6246436;23;20403;-84
2021/06/05 06:18:16;;;;;;;1129.97;999.90;;;19.20;99.90;;;;;;6254569;23;20426;-83
2021/06/05 06:20:45;;;;;;;1113.30;999.90;;;19.20;99.90;;;;;;6246338;23;20498;-85
2021/06/05 06:23:12;;;;;;;1096.57;999.90;;;19.30;99.90;;;;;;6255961;23;20757;-84
2021/06/05 06:25:43;;;;;;;1126.90;999.90;;;19.50;99.90;;;;;;6256301;23;20949;-87
2021/06/05 06:28:13;;;;;;;1125.70;999.90;;;19.60;99.90;;;;;;6246163;23;20490;-81
2021/06/05 06:30:44;;;;;;;1173.87;999.90;;;19.60;99.90;;;;;;6245887;23;20406;-81
2021/06/05 06:37:16;;;;;;;1164.93;999.90;;;19.70;99.90;;;;;;6093873;23;20914;-83
2021/06/05 06:43:15;;;;;;;999.70;959.60;;;19.50;99.90;;;;;;6192785;23;20503;-83
2021/06/05 06:45:58;;;;;;;938.07;904.77;;;19.50;99.90;;;;;;6213694;23;20404;-83
2021/06/05 06:48:25;;;;;;;936.63;903.63;;;19.40;99.90;;;;;;6211887;23;20400;-82
2021/06/05 06:50:56;;;;;;;944.73;912.00;;;19.50;99.90;;;;;;6213674;23;20411;-82
2021/06/05 06:54:12;;;;;;;;;;;;;;;;;;;;;
2021/06/05 07:00:12;;;;;;;820.07;793.17;;;19.50;99.90;;;;;;6212438;23;20900;-84
2021/06/05 07:02:38;;;;;;;822.67;795.40;;;19.70;99.90;;;;;;6207617;23;20466;-77
2021/06/05 07:05:06;;;;;;;871.17;841.53;;;19.80;99.90;;;;;;6213605;23;20436;-80
2021/06/05 07:07:32;;;;;;;966.13;930.40;;;20.10;99.90;;;;;;6214095;23;20383;-77
2021/06/05 07:09:59;;;;;;;950.23;915.23;;;20.20;99.90;;;;;;6215322;23;20435;-79
2021/06/05 07:12:27;;;;;;;983.77;946.83;;;20.00;99.90;;;;;;6214757;23;21045;-78
2021/06/05 07:14:53;;;;;;;899.13;867.07;;;20.00;99.90;;;;;;6214843;23;20754;-78
2021/06/05 07:17:25;;;;;;;850.37;820.53;;;20.20;99.90;;;;;;6213408;23;20404;-81
2021/06/05 07:19:52;;;;;;;793.63;766.53;;;20.10;99.90;;;;;;6224941;23;20523;-81
2021/06/05 07:22:18;;;;;;;720.57;696.47;;;19.90;99.90;;;;;;6214974;23;20400;-79
2021/06/05 07:24:45;;;;;;;664.13;642.43;;;19.80;99.90;;;;;;6225367;23;20443;-80
2021/06/05 07:27:11;;;;;;;638.37;617.80;;;19.60;99.90;;;;;;6214591;23;20950;-80
2021/06/05 07:36:20;;;;;;;613.00;593.70;;;19.40;99.90;;;;;;5961120;24;20539;-87
2021/06/05 07:38:54;;;;;;;618.17;598.83;;;19.60;99.90;;;;;;5952189;23;20408;-84
2021/06/05 07:41:21;;;;;;;521.73;504.87;;;19.80;99.90;;;;;;5970888;23;20448;-84
2021/06/05 07:43:54;;;;;;;231.53;221.67;;;19.80;99.90;;;;;;6017616;23;20454;-85
2021/06/05 08:34:40;;;;;;;;;;;;;;;;;;;;;
2021/06/05 09:38:48;;;;;;;33.77;2.87;;;20.10;99.90;;;;;;5925063;24;20424;-84
2021/06/05 09:41:23;;;;;;;35.20;5.30;;;19.80;99.90;;;;;;5990147;24;20423;-82
2021/06/05 09:43:50;;;;;;;34.30;3.87;;;19.40;99.90;;;;;;6032174;23;20446;-88
2021/06/05 09:46:28;;;;;;;33.23;4.33;;;19.20;99.90;;;;;;6076151;23;20885;-88
2021/06/05 09:49:15;;;;;;;32.00;4.30;;;19.10;99.90;;;;;;6195140;23;20420;-86
2021/06/05 09:51:44;;;;;;;32.30;5.07;;;19.20;99.90;;;;;;6185611;23;20402;-87
2021/06/05 09:54:15;;;;;;;32.07;6.90;;;19.10;99.90;;;;;;6185961;23;20459;-89
2021/06/05 09:56:44;;;;;;;32.23;6.10;;;19.20;99.90;;;;;;6195436;23;20912;-88
2021/06/05 09:59:23;;;;;;;32.03;6.93;;;19.20;99.90;;;;;;6195779;23;20405;-90
2021/06/05 10:01:57;;;;;;;31.40;5.90;;;19.40;99.90;;;;;;6195099;23;20404;-86
2021/06/05 10:04:27;;;;;;;32.80;7.77;;;19.50;99.90;;;;;;6185332;23;20447;-89
2021/06/05 10:06:59;;;;;;;31.87;7.27;;;19.60;99.90;;;;;;6195397;23;20487;-90
2021/06/05 10:09:37;;;;;;;31.70;7.40;;;19.70;99.90;;;;;;6189825;23;20404;-87
2021/06/05 10:12:07;;;;;;;32.07;7.90;;;20.00;99.90;;;;;;6196261;23;20416;-91
2021/06/05 10:14:55;;;;;;;32.17;5.80;;;20.30;99.90;;;;;;6185663;23;20885;-89
2021/06/05 10:23:55;;;;;;;;;;;;;;;;;;;;;
2021/06/05 10:26:52;;;;;;;34.90;4.80;;;21.30;99.90;;;;;;6072390;23;20405;-86
2021/06/05 10:29:33;;;;;;;35.47;4.23;;;21.20;99.90;;;;;;6184823;23;20421;-88
2021/06/05 10:32:19;;;;;;;36.50;4.80;;;21.80;99.90;;;;;;6224329;23;20427;-85
2021/06/05 10:39:18;;;;;;;39.60;6.20;;;22.60;99.90;;;;;;6104019;23;20395;-87
2021/06/05 11:05:51;;;;;;;;;;;;;;;;;;;;;
2021/06/05 11:08:55;;;;;;;;;;;;;;;;;;;;;
2021/06/05 11:12:05;;;;;;;;;;;;;;;;;;;;;
2021/06/05 11:14:57;;;;;;;38.50;4.53;;;22.10;99.90;;;;;;6065902;23;20495;-82
2021/06/05 11:17:30;;;;;;;40.10;3.60;;;22.40;99.90;;;;;;6063391;23;20469;-79
2021/06/05 11:20:38;;;;;;;37.50;2.20;;;22.70;99.90;;;;;;6162010;22;20411;-82
2021/06/05 11:23:22;;;;;;;38.00;2.60;;;22.60;99.90;;;;;;6286298;22;20421;-82
2021/06/05 11:25:57;;;;;;;38.33;3.93;;;22.60;99.90;;;;;;6275224;22;20824;-82
2021/06/05 11:28:46;;;;;;;37.10;2.30;;;22.70;99.90;;;;;;6275804;22;20401;-80
2021/06/05 11:31:39;;;;;;;46.27;4.17;;;22.50;99.90;;;;;;6276164;22;20902;-79
2021/06/05 11:34:55;;;;;;;37.37;2.97;;;22.40;99.90;;;;;;6274213;22;20936;-85
2021/06/05 11:52:14;;;;;;;;;;;;;;;;;;;;;
2021/06/05 11:55:16;;;;;;;36.70;7.60;;;20.80;99.90;;;;;;6042141;23;20494;-84
2021/06/05 11:58:02;;;;;;;34.50;7.83;;;20.90;99.90;;;;;;5990527;24;20422;-86
2021/06/05 12:00:45;;;;;;;34.53;7.90;;;20.90;99.90;;;;;;6228258;23;20414;-86
2021/06/05 12:03:30;;;;;;;36.00;10.07;;;20.80;99.90;;;;;;6256052;23;20496;-86
2021/06/05 12:16:13;;;;;;;35.20;11.13;;;20.00;99.90;;;;;;6149080;23;20414;-86
2021/06/05 12:19:08;;;;;;;34.27;9.17;;;19.60;99.90;;;;;;6151744;23;20476;-86
2021/06/05 13:16:11;;;;;;;33.30;5.80;;;19.10;99.90;;;;;;5870024;24;20751;-86
2021/06/05 13:24:36;;;;;;;32.90;7.20;;;19.20;99.90;;;;;;5816124;24;20459;-82
2021/06/05 13:28:02;;;;;;;32.73;6.13;;;19.20;99.90;;;;;;5953012;23;20457;-83
2021/06/05 13:44:31;;;;;;;30.47;4.00;;;18.90;99.90;;;;;;5829897;24;20450;-81
2021/06/05 13:54:02;;;;;;;29.83;3.70;;;18.60;99.90;;;;;;6033216;23;20509;-86
2021/06/05 13:57:14;;;;;;;30.77;5.20;;;18.60;99.90;;;;;;6037306;23;20405;-91
2021/06/05 14:00:18;;;;;;;29.73;3.60;;;18.30;99.90;;;;;;6046491;23;20444;-86
2021/06/05 14:02:45;;;;;;;29.60;4.00;;;18.20;99.90;;;;;;6026987;23;20452;-82
2021/06/05 14:05:13;;;;;;;29.97;5.43;;;18.20;99.90;;;;;;6165122;23;20884;-82
2021/06/05 14:07:57;;;;;;;29.00;4.00;;;18.30;99.90;;;;;;6246094;23;20482;-87
2021/06/05 14:21:16;;;;;;;29.40;4.53;;;18.00;99.90;;;;;;6140808;22;20503;-86
2021/06/05 14:24:36;;;;;;;;;;;;;;;;;;;;;
2021/06/05 14:54:47;;;;;;;;;;;;;;;;;;;;;
2021/06/05 15:34:44;;;;;;;63.92;32.78;;;17.50;99.90;;;;;;6020177;23;20428;-85
2021/06/05 15:37:52;;;;;;;;;;;;;;;;;;;;;
2021/06/05 15:40:33;;;;;;;72.90;39.53;;;17.40;99.90;;;;;;6210915;23;20732;-84
2021/06/05 15:43:53;;;;;;;;;;;;;;;;;;;;;
2021/06/05 15:46:31;;;;;;;93.10;61.20;;;17.20;99.90;;;;;;6204427;23;20451;-84
2021/06/05 15:49:00;;;;;;;85.30;63.63;;;17.20;99.90;;;;;;6222001;23;20466;-84
2021/06/05 15:51:31;;;;;;;87.67;66.97;;;17.20;99.90;;;;;;6213796;23;20410;-84
2021/06/05 15:56:58;;;;;;;115.57;104.00;;;17.00;99.90;;;;;;6172873;23;20412;-84
2021/06/05 15:59:30;;;;;;;128.93;114.67;;;17.00;99.90;;;;;;6213877;23;20396;-83
2021/06/05 16:01:56;;;;;;;147.40;132.93;;;16.90;99.90;;;;;;6212860;23;20397;-83
2021/06/05 16:04:41;;;;;;;177.03;160.63;;;16.90;99.90;;;;;;6212926;23;20985;-84
2021/06/05 16:07:08;;;;;;;218.50;200.70;;;16.90;99.90;;;;;;6223839;23;20400;-84
2021/06/05 16:09:35;;;;;;;352.10;328.90;;;16.90;99.90;;;;;;6213323;23;20404;-84
2021/06/05 16:12:01;;;;;;;334.90;312.33;;;17.00;99.90;;;;;;6213582;23;20400;-84
2021/06/05 16:14:27;;;;;;;386.53;358.70;;;16.90;99.90;;;;;;6213369;23;20415;-83
2021/06/05 16:16:54;;;;;;;376.57;349.97;;;16.90;99.90;;;;;;6213679;23;20397;-83
2021/06/05 16:19:25;;;;;;;340.20;316.73;;;16.90;99.90;;;;;;6212864;23;20400;-84
2021/06/05 16:21:58;;;;;;;320.13;297.53;;;16.90;99.90;;;;;;6213839;23;20395;-83
2021/06/05 16:24:29;;;;;;;277.17;255.03;;;17.00;99.90;;;;;;6215441;23;20499;-84
2021/06/05 16:26:58;;;;;;;279.97;258.50;;;17.10;99.90;;;;;;6214857;23;20435;-84
2021/06/05 16:29:26;;;;;;;258.33;238.33;;;17.10;99.90;;;;;;6224738;23;20408;-83
2021/06/05 16:31:56;;;;;;;196.20;179.57;;;17.20;99.90;;;;;;6224863;23;20419;-83
2021/06/05 16:34:23;;;;;;;194.90;177.40;;;17.10;99.90;;;;;;6224614;23;20400;-84
2021/06/05 16:36:49;;;;;;;203.73;186.80;;;17.20;99.90;;;;;;6225051;23;20497;-84
2021/06/05 16:39:17;;;;;;;199.13;182.83;;;17.20;99.90;;;;;;6214815;23;20400;-84
2021/06/05 16:41:44;;;;;;;161.97;145.77;;;17.30;99.90;;;;;;6215096;23;20450;-84
2021/06/05 16:44:11;;;;;;;152.90;136.30;;;17.40;99.90;;;;;;6224935;23;20404;-84
2021/06/05 16:46:37;;;;;;;133.73;99.60;;;17.40;99.90;;;;;;6214902;23;20888;-83
2021/06/05 16:49:04;;;;;;;118.80;81.10;;;17.50;99.90;;;;;;6213706;23;20787;-84
2021/06/05 16:51:36;;;;;;;127.80;81.30;;;17.50;99.90;;;;;;6215396;23;20400;-84
2021/06/05 16:54:05;;;;;;;117.80;67.57;;;17.50;99.90;;;;;;6215261;23;20396;-84
2021/06/05 16:56:36;;;;;;;126.00;76.90;;;17.50;99.90;;;;;;6216047;23;20400;-84
2021/06/05 16:59:05;;;;;;;127.43;66.77;;;17.60;99.90;;;;;;6216681;23;20403;-84
2021/06/05 17:01:35;;;;;;;128.97;72.40;;;17.60;99.90;;;;;;6226398;23;20467;-84
2021/06/05 17:04:16;;;;;;;135.23;68.67;;;17.70;99.90;;;;;;6224742;23;20490;-84
2021/06/05 17:06:54;;;;;;;;;;;;;;;;;;;;;
2021/06/05 17:09:22;;;;;;;120.77;62.83;;;17.70;99.90;;;;;;6215414;23;20415;-85
2021/06/05 17:11:53;;;;;;;113.93;65.30;;;17.70;99.90;;;;;;6226285;23;20419;-85
2021/06/05 17:14:21;;;;;;;112.13;60.97;;;17.70;99.90;;;;;;6226547;23;20416;-84
2021/06/05 17:17:03;;;;;;;;;;;;;;;;;;;;;
2021/06/05 17:19:30;;;;;;;109.97;56.67;;;17.70;99.90;;;;;;6209445;23;20411;-85
2021/06/05 17:22:10;;;;;;;117.17;59.70;;;17.60;99.90;;;;;;6215784;23;20400;-85
2021/06/05 17:25:00;;;;;;;122.70;60.33;;;17.50;99.90;;;;;;6216222;23;20431;-85
2021/06/05 17:27:41;;;;;;;;;;;;;;;;;;;;;
2021/06/05 17:30:41;;;;;;;128.47;63.30;;;17.50;99.90;;;;;;6189323;23;20826;-85
2021/06/05 17:33:45;;;;;;;113.07;61.10;;;17.40;99.90;;;;;;6035478;23;20418;-86
2021/06/05 17:55:49;;;;;;;128.03;66.43;;;17.20;99.90;;;;;;5852071;24;20827;-85
2021/06/05 18:08:25;;;;;;;134.43;75.40;;;17.30;99.90;;;;;;6214138;23;20507;-85
2021/06/05 18:11:09;;;;;;;;;;;;;;;;;;;;;
2021/06/05 18:16:54;;;;;;;;;;;;;;;;;;;;;
2021/06/05 18:20:06;;;;;;;122.63;68.80;;;17.20;99.90;;;;;;6121042;23;20494;-85
2021/06/05 18:23:28;;;;;;;;;;;;;;;;;;;;;
2021/06/05 18:26:28;;;;;;;129.10;71.07;;;17.20;99.90;;;;;;6060724;23;20448;-85
2021/06/05 18:29:34;;;;;;;;;;;;;;;;;;;;;
2021/06/05 18:32:51;;;;;;;;;;;;;;;;;;;;;
2021/06/05 18:36:01;;;;;;;;;;;;;;;;;;;;;
2021/06/05 18:41:36;;;;;;;123.67;75.40;;;17.00;99.90;;;;;;6212190;23;20412;-85
2021/06/05 18:44:28;;;;;;;112.30;68.80;;;17.10;99.90;;;;;;6215151;23;20930;-86
2021/06/05 18:50:54;;;;;;;120.47;67.97;;;17.00;99.90;;;;;;6122030;23;20745;-86
2021/06/05 18:53:37;;;;;;;120.07;73.20;;;17.00;99.90;;;;;;6215563;23;20431;-85
2021/06/05 18:56:24;;;;;;;;;;;;;;;;;;;;;
2021/06/05 18:58:57;;;;;;;126.13;75.53;;;17.00;99.90;;;;;;6147926;23;20486;-85
2021/06/05 19:01:53;;;;;;;;;;;;;;;;;;;;;
2021/06/05 19:04:51;;;;;;;;;;;;;;;;;;;;;
2021/06/05 19:10:52;;;;;;;119.73;75.10;;;16.90;99.90;;;;;;6084199;23;20951;-84
2021/06/05 19:22:26;;;;;;;113.20;71.13;;;16.80;99.90;;;;;;6227436;23;20458;-85
2021/06/05 19:28:46;;;;;;;106.63;67.93;;;16.70;99.90;;;;;;6098118;23;20931;-85
2021/06/05 19:31:56;;;;;;;116.27;65.57;;;16.80;99.90;;;;;;6260705;22;20429;-85
2021/06/05 19:34:24;;;;;;;106.63;66.10;;;16.70;99.90;;;;;;6273626;22;20418;-85
2021/06/05 19:37:13;;;;;;;102.87;70.17;;;16.70;99.90;;;;;;6276173;22;20410;-85
2021/06/05 19:40:23;;;;;;;118.83;74.90;;;16.70;99.90;;;;;;6276219;22;20398;-85
2021/06/05 19:49:47;;;;;;;99.93;66.97;;;16.60;99.90;;;;;;6066622;23;20466;-85
2021/06/05 19:52:51;;;;;;;118.53;69.30;;;16.60;99.90;;;;;;6172183;23;20414;-86
2021/06/05 19:55:53;;;;;;;;;;;;;;;;;;;;;
2021/06/05 19:59:09;;;;;;;;;;;;;;;;;;;;;
2021/06/05 20:02:15;;;;;;;106.63;67.50;;;16.50;99.90;;;;;;6119459;23;20418;-85
2021/06/05 20:08:40;;;;;;;;;;;;;;;;;;;;;
2021/06/05 20:11:20;;;;;;;101.00;57.37;;;16.60;99.90;;;;;;6094461;23;20411;-84
2021/06/05 20:14:34;;;;;;;107.20;61.57;;;16.60;99.90;;;;;;6105236;23;20403;-85